Time;durP1;ratioP1;P1;durP2;ratioP2;P2;SDS_P1;SDS_P2;PMS_P1;PMS_P2;Temp;Humidity;BMP_temperature;BMP_pressure;BME280_temperature;BME280_humidity;BME280_pressure;Samples;Min_cycle;Max_cycle;Signal;HPM_P1;HPM_P2
2024/01/22 00:01:05;;;;;;;4.23;2.50;;;7.50;99.90;;;;;;4960464;28;20429;-68
2024/01/22 00:03:31;;;;;;;1.30;1.20;;;7.50;99.90;;;;;;4946654;28;20454;-68
2024/01/22 00:05:58;;;;;;;6.40;1.50;;;7.50;99.90;;;;;;4952296;28;20821;-68
2024/01/22 00:08:26;;;;;;;1.70;1.20;;;7.50;99.90;;;;;;4950173;28;20458;-68
2024/01/22 00:10:53;;;;;;;1.50;1.40;;;7.60;99.90;;;;;;4955965;28;20446;-69
2024/01/22 00:13:19;;;;;;;8.93;1.20;;;7.60;99.90;;;;;;4948649;28;20483;-68
2024/01/22 00:15:46;;;;;;;1.87;1.57;;;7.60;99.90;;;;;;4956558;28;20502;-69
2024/01/22 00:18:13;;;;;;;2.20;1.37;;;7.60;99.90;;;;;;4952643;28;20921;-70
2024/01/22 00:20:40;;;;;;;2.57;1.53;;;7.60;99.90;;;;;;4951804;28;20426;-68
2024/01/22 00:23:07;;;;;;;4.30;2.10;;;7.70;99.90;;;;;;4961984;28;20463;-68
2024/01/22 00:25:35;;;;;;;2.33;1.50;;;7.70;99.90;;;;;;4946378;28;20546;-67
2024/01/22 00:28:01;;;;;;;2.50;1.53;;;7.70;99.90;;;;;;4951202;28;20887;-68
2024/01/22 00:30:28;;;;;;;1.63;1.13;;;7.70;99.90;;;;;;4958283;28;20455;-68
2024/01/22 00:32:56;;;;;;;1.67;1.57;;;7.80;99.90;;;;;;4940543;28;20483;-68
2024/01/22 00:35:23;;;;;;;1.03;0.90;;;7.80;99.90;;;;;;4941838;28;21168;-68
2024/01/22 00:37:50;;;;;;;1.40;1.30;;;7.90;99.90;;;;;;4941483;28;20550;-68
2024/01/22 00:40:16;;;;;;;3.63;1.50;;;8.00;99.90;;;;;;4941218;28;20466;-68
2024/01/22 00:42:45;;;;;;;1.90;1.43;;;8.00;99.90;;;;;;4956675;28;20478;-68
2024/01/22 00:45:11;;;;;;;2.03;1.83;;;8.10;99.90;;;;;;4945422;28;20487;-68
2024/01/22 00:47:38;;;;;;;3.20;1.50;;;8.10;99.90;;;;;;4937765;28;20456;-68
2024/01/22 00:50:06;;;;;;;3.00;1.20;;;8.10;99.90;;;;;;4962763;28;20451;-68
2024/01/22 00:52:32;;;;;;;1.67;1.27;;;8.10;99.90;;;;;;4958922;28;20427;-68
2024/01/22 00:54:59;;;;;;;1.30;1.20;;;8.20;99.90;;;;;;4956719;28;20496;-68
2024/01/22 00:57:26;;;;;;;1.30;1.07;;;8.20;99.90;;;;;;4938641;28;20471;-68
2024/01/22 00:59:54;;;;;;;2.33;1.40;;;8.30;99.90;;;;;;4959126;28;20976;-68
2024/01/22 01:02:21;;;;;;;1.13;0.90;;;8.30;99.90;;;;;;4965945;28;20932;-68
2024/01/22 01:04:47;;;;;;;2.07;1.40;;;8.30;99.90;;;;;;4956071;28;20493;-69
2024/01/22 01:07:14;;;;;;;1.20;1.10;;;8.30;99.90;;;;;;4962594;28;20805;-68
2024/01/22 01:09:41;;;;;;;1.40;1.27;;;8.40;99.90;;;;;;4932208;28;20467;-68
2024/01/22 01:12:08;;;;;;;1.30;1.07;;;8.40;99.90;;;;;;4943940;28;20483;-69
2024/01/22 01:14:34;;;;;;;2.43;1.37;;;8.40;99.90;;;;;;4937246;28;20515;-69
2024/01/22 01:17:02;;;;;;;1.93;1.20;;;8.40;99.90;;;;;;4944836;28;20825;-69
2024/01/22 01:19:29;;;;;;;2.20;1.50;;;8.50;99.90;;;;;;4952341;28;20968;-69
2024/01/22 01:21:56;;;;;;;1.40;1.00;;;8.50;99.90;;;;;;4939689;28;20445;-68
2024/01/22 01:24:23;;;;;;;1.30;1.10;;;8.50;99.90;;;;;;4935486;28;20541;-68
2024/01/22 01:26:50;;;;;;;5.03;1.63;;;8.50;99.90;;;;;;4935464;28;21894;-68
2024/01/22 01:29:17;;;;;;;1.37;0.97;;;8.50;99.90;;;;;;4959091;28;20447;-68
2024/01/22 01:31:43;;;;;;;4.03;1.27;;;8.50;99.90;;;;;;4965050;28;20584;-68
2024/01/22 01:34:11;;;;;;;1.67;1.30;;;8.60;99.90;;;;;;4957486;28;20450;-68
2024/01/22 01:36:37;;;;;;;1.30;1.00;;;8.60;99.90;;;;;;4953728;28;20294;-67
2024/01/22 01:39:04;;;;;;;1.77;0.90;;;8.60;99.90;;;;;;4932666;28;20457;-67
2024/01/22 01:41:31;;;;;;;1.20;0.90;;;8.70;99.90;;;;;;4943166;28;20469;-68
2024/01/22 01:43:58;;;;;;;1.70;1.60;;;8.60;99.90;;;;;;4947950;28;20441;-68
2024/01/22 01:46:25;;;;;;;1.10;0.87;;;8.70;99.90;;;;;;4941013;28;21007;-67
2024/01/22 01:48:52;;;;;;;1.00;0.87;;;8.60;99.90;;;;;;4935905;28;20530;-67
2024/01/22 01:51:21;;;;;;;1.80;1.30;;;8.70;99.90;;;;;;4952917;28;20505;-69
2024/01/22 01:53:51;;;;;;;1.17;1.07;;;8.70;99.90;;;;;;4925070;28;20495;-68
2024/01/22 01:56:19;;;;;;;2.33;1.30;;;8.80;99.90;;;;;;4944315;28;20944;-68
2024/01/22 01:58:45;;;;;;;8.40;1.40;;;8.80;99.90;;;;;;4926930;28;20445;-68
2024/01/22 02:01:12;;;;;;;3.57;1.57;;;8.90;99.90;;;;;;4938968;28;20459;-68
2024/01/22 02:03:40;;;;;;;1.10;0.90;;;8.90;99.90;;;;;;4952847;28;20464;-68
2024/01/22 02:06:07;;;;;;;1.20;0.90;;;8.90;99.90;;;;;;4937773;28;20490;-68
2024/01/22 02:08:35;;;;;;;2.30;1.00;;;8.90;99.90;;;;;;4937984;28;20442;-68
2024/01/22 02:11:01;;;;;;;1.73;1.30;;;9.00;99.90;;;;;;4947222;28;20475;-68
2024/01/22 02:13:28;;;;;;;1.30;1.20;;;9.00;99.90;;;;;;4941327;28;20498;-68
2024/01/22 02:15:55;;;;;;;1.27;0.90;;;9.10;99.90;;;;;;4964374;28;20485;-69
2024/01/22 02:18:22;;;;;;;1.20;0.90;;;9.10;99.90;;;;;;4954634;28;20492;-68
2024/01/22 02:20:49;;;;;;;1.23;1.13;;;9.10;99.90;;;;;;4956790;28;20460;-68
2024/01/22 02:23:17;;;;;;;2.80;1.53;;;9.10;99.90;;;;;;4957073;28;20479;-68
2024/01/22 02:25:44;;;;;;;1.83;1.27;;;9.10;99.90;;;;;;4945495;28;20479;-68
2024/01/22 02:28:11;;;;;;;4.30;1.00;;;9.10;99.90;;;;;;4955194;28;20464;-68
2024/01/22 02:30:38;;;;;;;1.03;0.80;;;9.20;99.90;;;;;;4958295;28;20964;-68
2024/01/22 02:33:05;;;;;;;1.20;1.10;;;9.20;99.90;;;;;;4949409;28;20471;-68
2024/01/22 02:35:32;;;;;;;3.37;1.60;;;9.20;99.90;;;;;;4954601;28;20912;-68
2024/01/22 02:37:59;;;;;;;1.27;1.13;;;9.20;99.90;;;;;;4938117;28;20445;-68
2024/01/22 02:40:27;;;;;;;2.90;1.50;;;9.20;99.90;;;;;;4955978;28;20457;-68
2024/01/22 02:42:53;;;;;;;1.20;1.07;;;9.30;99.90;;;;;;4955313;28;20551;-67
2024/01/22 02:45:20;;;;;;;1.73;1.23;;;9.30;99.90;;;;;;4959138;28;20516;-68
2024/01/22 02:47:47;;;;;;;1.63;1.50;;;9.30;99.90;;;;;;4960726;28;20463;-68
2024/01/22 02:50:14;;;;;;;1.40;1.00;;;9.30;99.90;;;;;;4962011;28;20447;-68
2024/01/22 02:52:40;;;;;;;1.00;0.87;;;9.30;99.90;;;;;;4959135;28;20478;-68
2024/01/22 02:55:08;;;;;;;1.10;0.97;;;9.40;99.90;;;;;;4958916;28;20457;-68
2024/01/22 02:57:36;;;;;;;9.43;1.30;;;9.40;99.90;;;;;;4957194;28;22017;-68
2024/01/22 03:00:05;;;;;;;1.73;1.20;;;9.40;99.90;;;;;;4963491;28;20850;-69
2024/01/22 03:02:31;;;;;;;1.20;0.90;;;9.40;99.90;;;;;;4962062;28;20514;-68
2024/01/22 03:04:58;;;;;;;1.00;0.90;;;9.40;99.90;;;;;;4953942;28;20455;-68
2024/01/22 03:07:25;;;;;;;2.80;0.90;;;9.50;99.90;;;;;;4961140;28;20467;-68
2024/01/22 03:09:52;;;;;;;1.20;1.10;;;9.50;99.90;;;;;;4956458;28;20794;-68
2024/01/22 03:12:18;;;;;;;1.20;1.00;;;9.50;99.90;;;;;;4958033;28;20946;-68
2024/01/22 03:14:46;;;;;;;4.07;1.10;;;9.50;99.90;;;;;;4953528;28;21042;-68
2024/01/22 03:17:13;;;;;;;1.60;1.10;;;9.50;99.90;;;;;;4959843;28;20470;-69
2024/01/22 03:19:40;;;;;;;1.00;0.70;;;9.50;99.90;;;;;;4959499;28;20498;-68
2024/01/22 03:22:07;;;;;;;1.70;0.90;;;9.60;99.90;;;;;;4954320;28;20464;-67
2024/01/22 03:24:34;;;;;;;1.30;1.00;;;9.60;99.90;;;;;;4954067;28;20475;-68
2024/01/22 03:27:01;;;;;;;0.90;0.77;;;9.60;99.90;;;;;;4958467;28;20466;-69
2024/01/22 03:29:27;;;;;;;1.13;1.03;;;9.60;99.90;;;;;;4961723;28;20454;-68
2024/01/22 03:31:55;;;;;;;1.57;1.00;;;9.60;99.90;;;;;;4951608;28;20463;-68
2024/01/22 03:34:22;;;;;;;1.20;0.80;;;9.70;99.90;;;;;;4957383;28;20487;-68
2024/01/22 03:36:49;;;;;;;1.53;1.00;;;9.70;99.90;;;;;;4957751;28;20460;-68
2024/01/22 03:39:15;;;;;;;2.23;1.20;;;9.70;99.90;;;;;;4959318;28;20919;-68
2024/01/22 03:41:42;;;;;;;2.50;1.67;;;9.70;99.90;;;;;;4962155;28;20511;-68
2024/01/22 03:44:12;;;;;;;4.50;1.13;;;9.80;99.90;;;;;;4957048;28;20545;-67
2024/01/22 03:46:39;;;;;;;1.60;1.07;;;9.80;99.90;;;;;;4958935;28;20447;-68
2024/01/22 03:49:07;;;;;;;2.50;1.77;;;9.80;99.90;;;;;;4956370;28;20825;-68
2024/01/22 03:51:33;;;;;;;3.10;1.40;;;9.80;99.90;;;;;;4959317;28;20434;-68
2024/01/22 03:54:00;;;;;;;1.50;0.90;;;9.80;99.90;;;;;;4955737;28;20535;-68
2024/01/22 03:56:27;;;;;;;1.87;1.00;;;9.70;99.90;;;;;;4961626;28;20486;-68
2024/01/22 03:58:53;;;;;;;2.17;1.10;;;9.40;99.90;;;;;;4950393;28;20445;-67
2024/01/22 04:01:21;;;;;;;1.20;1.00;;;9.30;99.90;;;;;;4953389;28;20460;-67
2024/01/22 04:03:48;;;;;;;2.90;1.33;;;9.20;99.90;;;;;;4941353;28;20468;-67
2024/01/22 04:06:16;;;;;;;1.87;1.30;;;9.10;99.90;;;;;;4953700;28;20475;-67
2024/01/22 04:08:43;;;;;;;2.90;1.40;;;9.00;99.90;;;;;;4954835;28;20821;-67
2024/01/22 04:11:10;;;;;;;1.40;1.30;;;9.00;99.90;;;;;;4958870;28;20449;-68
2024/01/22 04:13:39;;;;;;;1.40;1.30;;;8.90;99.90;;;;;;4952521;28;20434;-67
2024/01/22 04:16:13;;;;;;;2.10;1.00;;;8.90;99.90;;;;;;4958013;28;20518;-67
2024/01/22 04:18:41;;;;;;;1.20;1.00;;;8.90;99.90;;;;;;4956253;28;20519;-67
2024/01/22 04:21:07;;;;;;;1.97;1.43;;;8.90;99.90;;;;;;4960317;28;20475;-67
2024/01/22 04:23:36;;;;;;;1.23;0.90;;;8.80;99.90;;;;;;4955175;28;20422;-68
2024/01/22 04:26:02;;;;;;;1.13;1.03;;;8.90;99.90;;;;;;4966214;28;20467;-67
2024/01/22 04:28:29;;;;;;;1.60;0.90;;;8.80;99.90;;;;;;4955164;28;20433;-67
2024/01/22 04:30:56;;;;;;;2.13;0.90;;;8.80;99.90;;;;;;4956095;28;20433;-67
2024/01/22 04:33:23;;;;;;;1.30;0.90;;;8.80;99.90;;;;;;4956417;28;20437;-67
2024/01/22 04:35:50;;;;;;;1.33;1.10;;;8.80;99.90;;;;;;4954258;28;20532;-67
2024/01/22 04:38:18;;;;;;;2.50;1.30;;;8.70;99.90;;;;;;4951252;28;20491;-67
2024/01/22 04:40:46;;;;;;;1.70;1.23;;;8.80;99.90;;;;;;4953444;28;20495;-67
2024/01/22 04:43:12;;;;;;;1.70;1.00;;;8.80;99.90;;;;;;4952391;28;20983;-67
2024/01/22 04:45:39;;;;;;;1.97;1.87;;;8.80;99.90;;;;;;4952827;28;20478;-67
2024/01/22 04:48:06;;;;;;;1.70;1.20;;;8.80;99.90;;;;;;4954487;28;20442;-67
2024/01/22 04:50:33;;;;;;;2.13;1.43;;;8.80;99.90;;;;;;4960633;28;20515;-68
2024/01/22 04:53:00;;;;;;;1.10;0.90;;;8.80;99.90;;;;;;4958420;28;20433;-67
2024/01/22 04:55:26;;;;;;;1.13;1.03;;;8.80;99.90;;;;;;4963765;28;20490;-67
2024/01/22 04:57:54;;;;;;;1.00;0.90;;;8.80;99.90;;;;;;4959490;28;20434;-68
2024/01/22 05:00:21;;;;;;;1.30;1.20;;;8.80;99.90;;;;;;4955868;28;20448;-68
2024/01/22 05:02:48;;;;;;;0.90;0.70;;;8.80;99.90;;;;;;4962715;28;20430;-68
2024/01/22 05:05:15;;;;;;;3.17;1.00;;;8.80;99.90;;;;;;4957740;28;20488;-69
2024/01/22 05:07:42;;;;;;;1.50;1.07;;;8.80;99.90;;;;;;4964436;28;20568;-68
2024/01/22 05:10:10;;;;;;;1.00;0.90;;;8.70;99.90;;;;;;4958425;28;20458;-68
2024/01/22 05:12:37;;;;;;;4.30;1.27;;;8.70;99.90;;;;;;4962575;28;20451;-68
2024/01/22 05:15:06;;;;;;;1.00;0.80;;;8.70;99.90;;;;;;4954515;28;20560;-68
2024/01/22 05:17:33;;;;;;;1.83;0.70;;;8.70;99.90;;;;;;4955935;28;20820;-68
2024/01/22 05:19:59;;;;;;;1.83;1.03;;;8.80;99.90;;;;;;4955312;28;20463;-68
2024/01/22 05:22:26;;;;;;;1.30;1.20;;;8.80;99.90;;;;;;4951977;28;20430;-67
2024/01/22 05:24:54;;;;;;;1.37;1.27;;;8.80;99.90;;;;;;4954323;28;21201;-68
2024/01/22 05:27:21;;;;;;;1.40;1.07;;;8.90;99.90;;;;;;4956124;28;20838;-67
2024/01/22 05:29:47;;;;;;;1.53;0.90;;;8.90;99.90;;;;;;4954321;28;20441;-68
2024/01/22 05:32:15;;;;;;;1.87;1.50;;;9.00;99.90;;;;;;4954914;28;20433;-68
2024/01/22 05:34:42;;;;;;;1.50;1.10;;;9.00;99.90;;;;;;4961130;28;20492;-69
2024/01/22 05:37:09;;;;;;;4.70;1.10;;;9.00;99.90;;;;;;4963710;28;20442;-68
2024/01/22 05:39:36;;;;;;;1.00;0.80;;;9.00;99.90;;;;;;4962402;28;20454;-67
2024/01/22 05:42:03;;;;;;;2.40;0.93;;;9.00;99.90;;;;;;4964071;28;20463;-67
2024/01/22 05:44:30;;;;;;;1.77;0.90;;;8.90;99.90;;;;;;4957277;28;20482;-68
2024/01/22 05:46:57;;;;;;;0.80;0.70;;;9.00;99.90;;;;;;4958967;28;20774;-68
2024/01/22 05:49:34;;;;;;;1.00;0.70;;;9.00;99.90;;;;;;4961727;28;20498;-68
2024/01/22 05:52:01;;;;;;;1.10;0.83;;;9.00;99.90;;;;;;5168962;23;20504;-68
2024/01/22 05:54:28;;;;;;;2.70;1.00;;;9.00;99.90;;;;;;4999547;28;20472;-68
2024/01/22 05:56:55;;;;;;;1.00;0.80;;;9.10;99.90;;;;;;4984954;28;20447;-68
2024/01/22 05:59:21;;;;;;;2.67;0.87;;;9.10;99.90;;;;;;4985451;28;20421;-67
2024/01/22 06:01:48;;;;;;;0.90;0.70;;;9.10;99.90;;;;;;4985261;28;20524;-68
2024/01/22 06:04:16;;;;;;;1.20;1.10;;;9.10;99.90;;;;;;4984041;28;20462;-68
2024/01/22 06:06:44;;;;;;;1.10;0.93;;;9.10;99.90;;;;;;4983242;28;20453;-68
2024/01/22 06:09:11;;;;;;;1.00;0.90;;;9.10;99.90;;;;;;4984051;28;20451;-68
2024/01/22 06:11:37;;;;;;;0.90;0.70;;;9.10;99.90;;;;;;4982437;28;21372;-67
2024/01/22 06:14:04;;;;;;;1.17;0.90;;;9.10;99.90;;;;;;4985782;28;20462;-68
2024/01/22 06:16:31;;;;;;;1.53;1.33;;;9.10;99.90;;;;;;4985666;28;20513;-68
2024/01/22 06:18:58;;;;;;;1.30;1.00;;;9.20;99.90;;;;;;4977244;28;20426;-68
2024/01/22 06:21:25;;;;;;;1.30;0.97;;;9.20;99.90;;;;;;4983734;28;20672;-68
2024/01/22 06:23:53;;;;;;;1.20;0.80;;;9.30;99.90;;;;;;4985115;28;20448;-69
2024/01/22 06:26:21;;;;;;;0.90;0.80;;;9.30;99.90;;;;;;4983437;28;20486;-68
2024/01/22 06:28:48;;;;;;;1.23;1.00;;;9.30;99.90;;;;;;4989198;28;20420;-68
2024/01/22 06:31:15;;;;;;;1.00;0.80;;;9.40;99.90;;;;;;4982436;28;20520;-68
2024/01/22 06:33:42;;;;;;;5.33;1.00;;;9.40;99.90;;;;;;4985248;28;20451;-68
2024/01/22 06:36:09;;;;;;;1.93;0.80;;;9.40;99.90;;;;;;4986989;28;20496;-69
2024/01/22 06:38:35;;;;;;;3.93;0.97;;;9.40;99.90;;;;;;4987880;28;20469;-69
2024/01/22 06:41:04;;;;;;;1.40;1.30;;;9.40;99.90;;;;;;4980496;28;20457;-67
2024/01/22 06:43:30;;;;;;;1.00;0.80;;;9.40;99.90;;;;;;4982874;28;20979;-67
2024/01/22 06:45:57;;;;;;;1.00;0.70;;;9.40;99.90;;;;;;4984044;28;20478;-68
2024/01/22 06:48:24;;;;;;;1.10;0.90;;;9.40;99.90;;;;;;4984169;28;20935;-67
2024/01/22 06:50:51;;;;;;;0.87;0.73;;;9.40;99.90;;;;;;4988789;28;20932;-67
2024/01/22 06:53:17;;;;;;;1.10;0.90;;;9.40;99.90;;;;;;4983365;28;20447;-68
2024/01/22 06:55:44;;;;;;;2.03;1.63;;;9.40;99.90;;;;;;4975485;28;20489;-68
2024/01/22 06:58:13;;;;;;;1.77;1.47;;;9.50;99.90;;;;;;4986995;28;20488;-68
2024/01/22 07:00:40;;;;;;;1.83;1.10;;;9.50;99.90;;;;;;4985559;28;20454;-68
2024/01/22 07:03:06;;;;;;;1.17;1.07;;;9.40;99.90;;;;;;4986132;28;20470;-68
2024/01/22 07:05:34;;;;;;;1.53;1.10;;;9.50;99.90;;;;;;4985766;28;20461;-68
2024/01/22 07:08:01;;;;;;;1.43;1.33;;;9.50;99.90;;;;;;4985138;28;20458;-68
2024/01/22 07:10:27;;;;;;;2.17;1.10;;;9.50;99.90;;;;;;4979976;28;20469;-68
2024/01/22 07:12:54;;;;;;;1.20;1.00;;;9.50;99.90;;;;;;4984536;28;20417;-68
2024/01/22 07:15:22;;;;;;;1.67;1.10;;;9.60;99.90;;;;;;4985572;28;20468;-68
2024/01/22 07:17:50;;;;;;;1.23;0.70;;;9.60;99.90;;;;;;4985150;28;20458;-68
2024/01/22 07:20:17;;;;;;;0.97;0.80;;;9.60;99.90;;;;;;4981985;28;20497;-68
2024/01/22 07:22:44;;;;;;;1.77;1.07;;;9.70;99.90;;;;;;4981833;28;20599;-68
2024/01/22 07:25:12;;;;;;;2.00;1.40;;;9.60;99.90;;;;;;4976111;28;20486;-67
2024/01/22 07:27:39;;;;;;;1.63;0.93;;;9.70;99.90;;;;;;4982545;28;20455;-67
2024/01/22 07:30:09;;;;;;;1.40;0.97;;;9.70;99.90;;;;;;4980789;28;20800;-67
2024/01/22 07:32:38;;;;;;;3.37;1.20;;;9.70;99.90;;;;;;4979941;28;20956;-67
2024/01/22 07:35:07;;;;;;;1.63;1.53;;;9.70;99.90;;;;;;4984164;28;20856;-68
2024/01/22 07:37:35;;;;;;;1.87;0.87;;;9.80;99.90;;;;;;4981834;28;20497;-68
2024/01/22 07:40:04;;;;;;;1.63;1.00;;;9.70;99.90;;;;;;4981653;28;20483;-68
2024/01/22 07:42:31;;;;;;;5.10;1.70;;;9.80;99.90;;;;;;4979221;28;20445;-68
2024/01/22 07:44:58;;;;;;;0.90;0.70;;;9.80;99.90;;;;;;4981895;28;20486;-68
2024/01/22 07:47:25;;;;;;;1.10;0.90;;;9.90;99.90;;;;;;4983369;28;20466;-68
2024/01/22 07:49:53;;;;;;;1.10;1.00;;;9.80;99.90;;;;;;4981867;28;20447;-68
2024/01/22 07:52:20;;;;;;;1.83;0.90;;;9.90;99.90;;;;;;4983264;28;20469;-68
2024/01/22 07:54:47;;;;;;;1.07;0.80;;;9.90;99.90;;;;;;4985883;28;20504;-68
2024/01/22 07:57:14;;;;;;;1.20;0.80;;;10.00;99.90;;;;;;4980618;28;20489;-68
2024/01/22 07:59:41;;;;;;;1.93;1.00;;;10.20;99.90;;;;;;4985468;28;20444;-68
2024/01/22 08:02:08;;;;;;;0.90;0.70;;;10.20;99.90;;;;;;4981131;28;20444;-68
2024/01/22 08:04:37;;;;;;;0.90;0.70;;;10.40;99.90;;;;;;4981247;28;20460;-68
2024/01/22 08:07:06;;;;;;;1.00;0.90;;;10.50;99.90;;;;;;4976721;28;20429;-68
2024/01/22 08:09:33;;;;;;;1.57;1.07;;;10.50;99.90;;;;;;4982972;28;20799;-68
2024/01/22 08:12:00;;;;;;;1.03;0.93;;;10.70;99.90;;;;;;4984533;28;20458;-68
2024/01/22 08:14:26;;;;;;;7.33;1.50;;;10.80;99.90;;;;;;4981640;28;20451;-68
2024/01/22 08:16:53;;;;;;;0.93;0.70;;;10.90;99.90;;;;;;4981856;28;20951;-68
2024/01/22 08:19:20;;;;;;;2.50;1.00;;;11.10;99.90;;;;;;4976590;28;20450;-68
2024/01/22 08:21:47;;;;;;;1.30;1.17;;;11.20;99.90;;;;;;4981059;28;21009;-68
2024/01/22 08:24:15;;;;;;;1.30;1.00;;;11.30;99.90;;;;;;4973943;28;20463;-68
2024/01/22 08:26:42;;;;;;;1.50;0.90;;;11.30;99.90;;;;;;4981932;28;20466;-68
2024/01/22 08:29:09;;;;;;;1.30;1.10;;;11.30;99.90;;;;;;4983062;28;20447;-68
2024/01/22 08:31:36;;;;;;;1.00;0.73;;;11.20;99.90;;;;;;4979395;28;20458;-68
2024/01/22 08:34:03;;;;;;;2.67;0.87;;;11.20;99.90;;;;;;4980923;28;20458;-68
2024/01/22 08:36:30;;;;;;;1.00;0.80;;;11.10;99.90;;;;;;4980116;28;20490;-68
2024/01/22 08:38:57;;;;;;;1.17;0.93;;;11.10;99.90;;;;;;4981921;28;20961;-69
2024/01/22 08:41:27;;;;;;;0.97;0.83;;;11.00;99.90;;;;;;4980134;28;20580;-68
2024/01/22 08:43:55;;;;;;;1.03;0.93;;;11.00;99.90;;;;;;4975673;28;20946;-68
2024/01/22 08:46:21;;;;;;;0.90;0.60;;;11.00;99.90;;;;;;4981923;28;20471;-68
2024/01/22 08:48:49;;;;;;;1.00;0.70;;;11.10;99.90;;;;;;4981059;28;20472;-68
2024/01/22 08:51:16;;;;;;;1.40;1.27;;;11.30;99.90;;;;;;4978979;28;20466;-69
2024/01/22 08:53:43;;;;;;;2.00;1.00;;;11.40;99.90;;;;;;4982540;28;20446;-68
2024/01/22 08:56:10;;;;;;;7.80;1.37;;;11.60;99.90;;;;;;4980679;28;20486;-68
2024/01/22 08:58:38;;;;;;;1.30;1.00;;;11.70;99.90;;;;;;4984921;28;20964;-69
2024/01/22 09:01:06;;;;;;;1.00;0.70;;;11.70;99.90;;;;;;4978311;28;20443;-69
2024/01/22 09:03:32;;;;;;;1.00;0.77;;;11.70;99.90;;;;;;4979632;28;20462;-69
2024/01/22 09:05:59;;;;;;;1.20;0.80;;;11.70;99.90;;;;;;4978431;28;20489;-68
2024/01/22 09:08:25;;;;;;;1.00;0.80;;;11.70;99.90;;;;;;4982323;28;20543;-68
2024/01/22 09:10:52;;;;;;;1.20;1.10;;;11.70;99.90;;;;;;4978917;28;20426;-69
2024/01/22 09:13:18;;;;;;;1.57;0.80;;;11.60;99.90;;;;;;4981090;28;20225;-68
2024/01/22 09:15:47;;;;;;;1.00;0.70;;;11.60;99.90;;;;;;4981408;28;20470;-68
2024/01/22 09:18:13;;;;;;;1.57;0.90;;;11.60;99.90;;;;;;4977768;28;20465;-68
2024/01/22 09:20:41;;;;;;;0.90;0.70;;;11.70;99.90;;;;;;4980726;28;20454;-68
2024/01/22 09:23:07;;;;;;;1.20;1.10;;;11.70;99.90;;;;;;4978679;28;20450;-68
2024/01/22 09:25:34;;;;;;;1.43;0.70;;;11.60;99.90;;;;;;4975426;28;20482;-68
2024/01/22 09:28:02;;;;;;;2.60;1.00;;;11.70;99.90;;;;;;4979554;28;20842;-68
2024/01/22 09:30:29;;;;;;;0.90;0.70;;;11.70;99.90;;;;;;4980436;28;21234;-69
2024/01/22 09:32:58;;;;;;;1.00;0.77;;;11.60;99.90;;;;;;4979190;28;20455;-68
2024/01/22 09:35:25;;;;;;;2.33;0.93;;;11.70;99.90;;;;;;4979119;28;20482;-68
2024/01/22 09:37:52;;;;;;;1.93;0.80;;;11.60;99.90;;;;;;4977324;28;20466;-68
2024/01/22 09:40:19;;;;;;;1.00;0.90;;;11.60;99.90;;;;;;4981452;28;20455;-69
2024/01/22 09:42:48;;;;;;;1.30;1.00;;;11.60;99.90;;;;;;4981097;28;20470;-68
2024/01/22 09:45:15;;;;;;;2.20;0.83;;;11.60;99.90;;;;;;4977136;28;20512;-68
2024/01/22 09:47:42;;;;;;;0.97;0.70;;;11.60;99.90;;;;;;4980046;28;20948;-68
2024/01/22 09:50:12;;;;;;;1.97;1.27;;;11.70;99.90;;;;;;4974895;28;21031;-68
2024/01/22 09:52:44;;;;;;;1.23;1.00;;;11.70;99.90;;;;;;4977372;28;20466;-68
2024/01/22 09:55:10;;;;;;;2.33;1.10;;;11.70;99.90;;;;;;4976996;28;20489;-68
2024/01/22 09:57:38;;;;;;;1.20;1.10;;;11.80;99.90;;;;;;4977851;28;20506;-69
2024/01/22 10:00:07;;;;;;;1.00;0.83;;;11.90;99.90;;;;;;4975243;28;21159;-68
2024/01/22 10:02:34;;;;;;;1.60;1.07;;;11.90;99.90;;;;;;4977224;28;20790;-69
2024/01/22 10:05:03;;;;;;;1.23;0.93;;;12.00;99.90;;;;;;4980772;28;20488;-69
2024/01/22 10:07:31;;;;;;;2.50;1.73;;;12.00;99.90;;;;;;4978450;28;20814;-68
2024/01/22 10:09:58;;;;;;;2.67;1.37;;;12.00;99.90;;;;;;4981247;28;20822;-68
2024/01/22 10:12:25;;;;;;;3.60;1.50;;;12.00;99.90;;;;;;4979112;28;20618;-68
2024/01/22 10:14:52;;;;;;;1.33;1.23;;;12.10;99.90;;;;;;4978767;28;20486;-68
2024/01/22 10:17:20;;;;;;;1.30;1.00;;;12.20;99.90;;;;;;4974965;28;20482;-68
2024/01/22 10:19:48;;;;;;;0.90;0.77;;;12.20;99.90;;;;;;4980726;28;20462;-68
2024/01/22 10:22:19;;;;;;;1.40;1.00;;;12.20;99.90;;;;;;4982302;28;20461;-68
2024/01/22 10:24:58;;;;;;;2.90;1.67;;;12.20;99.90;;;;;;4984615;28;20569;-68
2024/01/22 10:27:25;;;;;;;13.83;2.40;;;12.30;99.90;;;;;;4982904;28;20812;-68
2024/01/22 10:30:07;;;;;;;1.30;1.20;;;12.40;99.90;;;;;;4975965;28;20465;-68
2024/01/22 10:32:34;;;;;;;2.20;1.20;;;12.50;99.90;;;;;;4979442;28;21116;-68
2024/01/22 10:35:03;;;;;;;1.70;1.07;;;12.40;99.90;;;;;;4981612;28;20980;-68
2024/01/22 10:37:30;;;;;;;4.87;1.20;;;12.50;99.90;;;;;;4977586;28;20486;-68
2024/01/22 10:40:03;;;;;;;2.60;1.67;;;12.50;99.90;;;;;;4976034;28;20817;-68
2024/01/22 10:42:30;;;;;;;5.03;1.10;;;12.40;99.90;;;;;;4980481;28;20458;-68
2024/01/22 10:44:57;;;;;;;1.60;1.00;;;12.50;99.90;;;;;;4983549;28;20777;-68
2024/01/22 10:47:24;;;;;;;1.97;1.00;;;12.50;99.90;;;;;;4977482;28;20788;-68
2024/01/22 10:49:53;;;;;;;1.30;0.80;;;12.50;99.90;;;;;;4982688;28;20454;-68
2024/01/22 10:52:20;;;;;;;2.53;0.97;;;12.60;99.90;;;;;;4982816;28;20979;-68
2024/01/22 10:54:47;;;;;;;2.13;1.30;;;12.60;99.90;;;;;;4983529;28;20474;-68
2024/01/22 10:57:20;;;;;;;2.60;1.17;;;12.60;99.90;;;;;;4985068;28;20972;-68
2024/01/22 10:59:48;;;;;;;5.43;1.03;;;12.60;99.90;;;;;;4976291;28;20465;-68
2024/01/22 11:02:21;;;;;;;3.57;1.27;;;12.60;99.90;;;;;;4978619;28;20572;-68
2024/01/22 11:04:50;;;;;;;2.83;1.47;;;12.60;99.90;;;;;;4987400;28;20466;-67
2024/01/22 11:07:20;;;;;;;12.50;2.30;;;12.70;99.90;;;;;;4981343;28;20442;-68
2024/01/22 11:09:51;;;;;;;1.10;0.90;;;12.60;99.90;;;;;;4982333;28;20449;-68
2024/01/22 11:12:22;;;;;;;2.20;1.10;;;12.60;99.90;;;;;;4983202;28;21074;-68
2024/01/22 11:14:49;;;;;;;1.37;1.00;;;12.60;99.90;;;;;;4980014;28;20574;-68
2024/01/22 11:17:18;;;;;;;1.57;1.00;;;12.60;99.90;;;;;;4980705;28;20851;-68
2024/01/22 11:19:45;;;;;;;1.10;1.00;;;12.60;99.90;;;;;;4982001;28;20465;-68
2024/01/22 11:22:23;;;;;;;1.03;0.93;;;12.60;99.90;;;;;;4977073;28;20443;-68
2024/01/22 11:25:01;;;;;;;3.07;1.07;;;12.70;99.90;;;;;;4981788;28;20482;-69
2024/01/22 11:27:39;;;;;;;1.90;0.90;;;12.60;99.90;;;;;;4977912;28;20449;-68
2024/01/22 11:30:32;;;;;;;2.50;0.87;;;12.60;99.90;;;;;;4980853;28;20541;-68
2024/01/22 11:32:59;;;;;;;1.60;1.13;;;12.60;99.90;;;;;;4974796;28;20473;-68
2024/01/22 11:35:36;;;;;;;3.10;1.97;;;12.60;99.90;;;;;;4979992;28;20482;-68
2024/01/22 11:38:04;;;;;;;1.60;1.37;;;12.50;99.90;;;;;;4977449;28;20494;-68
2024/01/22 11:40:48;;;;;;;1.67;1.13;;;12.40;99.90;;;;;;4975637;28;20949;-68
2024/01/22 11:43:17;;;;;;;3.43;2.03;;;12.30;99.90;;;;;;4980537;28;20458;-68
2024/01/22 11:45:45;;;;;;;2.90;1.00;;;12.30;99.90;;;;;;4973387;28;20490;-67
2024/01/22 11:48:17;;;;;;;2.70;1.00;;;12.20;99.90;;;;;;4981455;28;20574;-68
2024/01/22 11:50:56;;;;;;;1.57;1.40;;;12.10;99.90;;;;;;4976233;28;20465;-68
2024/01/22 11:53:23;;;;;;;1.77;1.40;;;12.10;99.90;;;;;;4981414;28;25123;-68
2024/01/22 11:56:00;;;;;;;4.93;1.27;;;12.00;99.90;;;;;;4982242;28;20955;-68
2024/01/22 11:58:28;;;;;;;1.50;0.97;;;11.90;99.90;;;;;;4978378;28;20492;-68
2024/01/22 12:00:55;;;;;;;1.63;0.93;;;11.70;99.90;;;;;;4979394;28;20794;-68
2024/01/22 12:03:25;;;;;;;3.53;1.37;;;11.50;99.90;;;;;;4980695;28;20455;-67
2024/01/22 12:05:59;;;;;;;28.17;2.83;;;11.20;99.90;;;;;;4981297;28;20723;-67
2024/01/22 12:08:25;;;;;;;1.77;1.67;;;10.50;99.90;;;;;;4978369;28;21229;-67
2024/01/22 12:10:56;;;;;;;1.50;1.40;;;10.10;99.90;;;;;;4974625;28;20490;-68
2024/01/22 12:13:23;;;;;;;6.63;1.70;;;9.90;99.90;;;;;;4977161;28;20463;-68
2024/01/22 12:15:55;;;;;;;4.30;1.63;;;9.60;99.90;;;;;;4975228;28;20472;-67
2024/01/22 12:18:23;;;;;;;8.13;1.40;;;9.40;99.90;;;;;;4975562;28;21226;-68
2024/01/22 12:20:50;;;;;;;3.33;1.80;;;9.30;99.90;;;;;;4977036;28;20477;-67
2024/01/22 12:23:28;;;;;;;3.90;1.57;;;9.20;99.90;;;;;;4977177;28;20466;-67
2024/01/22 12:25:55;;;;;;;3.80;0.83;;;9.20;99.90;;;;;;4975174;28;20466;-68
2024/01/22 12:28:22;;;;;;;3.43;1.33;;;9.10;99.90;;;;;;4973750;28;20851;-68
2024/01/22 12:31:00;;;;;;;2.20;1.43;;;9.00;99.90;;;;;;4974121;28;20466;-68
2024/01/22 12:33:28;;;;;;;9.50;1.67;;;9.00;99.90;;;;;;4975874;28;20466;-70
2024/01/22 12:36:06;;;;;;;8.50;1.73;;;9.00;99.90;;;;;;4978407;28;20471;-69
2024/01/22 12:38:35;;;;;;;6.43;1.80;;;9.00;99.90;;;;;;4975378;28;20482;-68
2024/01/22 12:41:08;;;;;;;3.20;1.00;;;9.00;99.90;;;;;;4982438;28;20428;-67
2024/01/22 12:43:35;;;;;;;16.30;2.20;;;9.00;99.90;;;;;;4977524;28;20534;-68
2024/01/22 12:46:08;;;;;;;16.03;2.73;;;9.10;99.90;;;;;;4976399;28;20473;-68
2024/01/22 12:48:35;;;;;;;2.33;1.53;;;9.20;99.90;;;;;;4975098;28;20578;-69
2024/01/22 12:51:01;;;;;;;7.90;1.63;;;9.20;99.90;;;;;;4979059;28;20457;-69
2024/01/22 12:53:28;;;;;;;4.53;1.60;;;9.20;99.90;;;;;;4976329;28;20550;-69
2024/01/22 12:55:55;;;;;;;4.23;2.23;;;9.10;99.90;;;;;;4975195;28;20482;-68